Time;durP1;ratioP1;P1;durP2;ratioP2;P2;SDS_P1;SDS_P2;PMS_P1;PMS_P2;Temp;Humidity;BMP_temperature;BMP_pressure;BME280_temperature;BME280_humidity;BME280_pressure;Samples;Min_cycle;Max_cycle;Signal;HPM_P1;HPM_P2
2022/08/03 00:01:27;;;;;;;14.27;5.78;;;18.90;99.90;;;;;;4974602;28;20046;-90
2022/08/03 00:03:53;;;;;;;11.82;5.72;;;18.80;99.90;;;;;;4956446;28;20700;-89
2022/08/03 00:06:19;;;;;;;12.15;5.72;;;18.70;99.90;;;;;;4956124;28;20051;-90
2022/08/03 00:08:44;;;;;;;12.13;5.50;;;18.70;99.90;;;;;;4977527;28;20086;-91
2022/08/03 00:11:10;;;;;;;12.40;5.82;;;18.90;99.90;;;;;;4962550;28;20050;-90
2022/08/03 00:13:36;;;;;;;14.40;6.25;;;19.10;99.90;;;;;;4973191;28;20042;-91
2022/08/03 00:16:01;;;;;;;13.40;5.63;;;18.60;99.90;;;;;;4957010;28;20046;-90
2022/08/03 00:18:28;;;;;;;11.70;5.70;;;18.60;99.90;;;;;;4974383;28;20051;-90
2022/08/03 00:20:54;;;;;;;12.60;5.65;;;18.60;99.90;;;;;;4973147;28;20047;-91
2022/08/03 00:23:19;;;;;;;13.70;6.60;;;18.60;99.90;;;;;;4959882;28;20039;-90
2022/08/03 00:25:45;;;;;;;12.57;5.97;;;18.80;99.90;;;;;;4959904;28;20573;-90
2022/08/03 00:28:11;;;;;;;13.40;6.45;;;18.50;99.90;;;;;;4956445;28;20041;-90
2022/08/03 00:30:36;;;;;;;14.85;6.65;;;18.50;99.90;;;;;;4956797;28;20499;-90
2022/08/03 00:33:02;;;;;;;11.80;6.50;;;18.50;99.90;;;;;;4973798;28;20585;-90
2022/08/03 00:35:28;;;;;;;15.00;6.65;;;18.40;99.90;;;;;;4955983;28;20047;-91
2022/08/03 00:37:54;;;;;;;14.57;6.88;;;18.80;99.90;;;;;;4973493;28;20050;-90
2022/08/03 00:40:20;;;;;;;17.15;7.82;;;18.40;99.90;;;;;;4974070;28;20039;-90
2022/08/03 00:42:54;;;;;;;14.23;8.10;;;18.30;99.90;;;;;;4955405;28;20053;-90
2022/08/03 00:45:21;;;;;;;14.95;9.20;;;18.30;99.90;;;;;;4973944;28;20096;-91
2022/08/03 00:47:47;;;;;;;16.15;8.95;;;18.40;99.90;;;;;;4955973;28;20066;-90
2022/08/03 00:50:14;;;;;;;16.40;8.88;;;18.60;99.90;;;;;;4955439;28;20487;-90
2022/08/03 00:52:40;;;;;;;13.98;8.68;;;18.30;99.90;;;;;;4956283;28;20049;-91
2022/08/03 00:55:06;;;;;;;15.80;8.75;;;18.70;99.90;;;;;;4973125;28;20047;-92
2022/08/03 00:57:32;;;;;;;14.38;8.43;;;18.20;99.90;;;;;;4955527;28;20042;-90
2022/08/03 01:00:01;;;;;;;16.65;8.77;;;18.30;99.90;;;;;;4973347;28;20070;-91
2022/08/03 01:02:28;;;;;;;14.45;8.05;;;18.10;99.90;;;;;;4972947;28;20047;-91
2022/08/03 01:04:54;;;;;;;15.32;8.50;;;18.10;99.90;;;;;;4973212;28;20053;-90
2022/08/03 01:07:39;;;;;;;15.15;7.45;;;18.20;99.90;;;;;;4973405;28;20045;-90
2022/08/03 01:10:28;;;;;;;14.52;7.30;;;18.00;99.90;;;;;;4955305;28;20059;-90
2022/08/03 01:13:23;;;;;;;17.08;7.30;;;18.00;99.90;;;;;;4973251;28;20491;-90
2022/08/03 01:15:57;;;;;;;13.05;6.50;;;17.90;99.90;;;;;;4955716;28;20050;-90
2022/08/03 01:18:31;;;;;;;15.05;6.55;;;17.90;99.90;;;;;;4973270;28;20093;-91
2022/08/03 01:20:59;;;;;;;12.80;5.90;;;18.50;99.90;;;;;;4960519;28;20078;-90
2022/08/03 01:23:55;;;;;;;12.07;5.57;;;18.30;99.90;;;;;;4958441;28;20046;-90
2022/08/03 01:26:49;;;;;;;13.60;6.07;;;17.90;99.90;;;;;;4960268;28;20751;-90
2022/08/03 01:29:52;;;;;;;15.13;5.93;;;17.90;99.90;;;;;;4960632;28;20039;-90
2022/08/03 01:32:28;;;;;;;14.67;5.50;;;17.90;99.90;;;;;;4979044;28;20379;-89
2022/08/03 01:34:59;;;;;;;13.52;5.38;;;17.90;99.90;;;;;;4961931;28;20046;-90
2022/08/03 01:37:31;;;;;;;11.52;5.40;;;18.00;99.90;;;;;;4985888;28;20105;-89
2022/08/03 01:40:00;;;;;;;11.80;5.20;;;18.00;99.90;;;;;;4986011;28;20043;-90
2022/08/03 01:42:27;;;;;;;12.80;4.80;;;17.90;99.90;;;;;;4982372;28;20053;-91
2022/08/03 01:44:56;;;;;;;9.75;4.63;;;18.10;99.90;;;;;;4963386;28;20054;-90
2022/08/03 01:47:23;;;;;;;11.43;4.80;;;18.00;99.90;;;;;;4976877;28;20403;-90
2022/08/03 01:49:50;;;;;;;12.93;5.00;;;18.50;99.90;;;;;;4976799;28;20066;-89
2022/08/03 01:52:20;;;;;;;13.23;5.40;;;17.90;99.90;;;;;;4958977;28;20043;-90
2022/08/03 01:54:49;;;;;;;13.82;5.07;;;17.90;99.90;;;;;;4976309;28;20146;-90
2022/08/03 01:57:16;;;;;;;10.48;4.50;;;18.00;99.90;;;;;;4976859;28;20066;-90
2022/08/03 01:59:43;;;;;;;12.25;4.45;;;17.90;99.90;;;;;;4969936;28;20062;-91
2022/08/03 02:02:12;;;;;;;11.90;4.60;;;18.10;99.90;;;;;;4999799;28;20039;-90
2022/08/03 02:04:39;;;;;;;12.73;4.63;;;17.80;99.90;;;;;;4974187;28;20051;-91
2022/08/03 02:07:08;;;;;;;12.02;4.40;;;17.90;99.90;;;;;;4966620;28;20047;-90
2022/08/03 02:09:36;;;;;;;14.32;4.90;;;18.10;99.90;;;;;;4958711;28;20046;-90
2022/08/03 02:12:05;;;;;;;12.90;4.70;;;17.80;99.90;;;;;;4975585;28;20134;-90
2022/08/03 02:14:32;;;;;;;11.88;4.70;;;17.70;99.90;;;;;;4958541;28;20495;-89
2022/08/03 02:16:59;;;;;;;13.25;4.75;;;18.10;99.90;;;;;;4958970;28;20047;-90
2022/08/03 02:19:26;;;;;;;12.60;4.43;;;17.60;99.90;;;;;;4959087;28;20046;-90
2022/08/03 02:21:52;;;;;;;12.18;4.43;;;17.60;99.90;;;;;;4975047;28;20518;-91
2022/08/03 02:24:18;;;;;;;11.13;4.40;;;17.60;99.90;;;;;;4975947;28;20078;-89
2022/08/03 02:26:45;;;;;;;11.32;4.53;;;17.50;99.90;;;;;;4957639;28;20503;-90
2022/08/03 02:29:17;;;;;;;12.45;4.80;;;17.90;99.90;;;;;;4958481;28;20059;-90
2022/08/03 02:31:44;;;;;;;12.10;4.43;;;17.80;99.90;;;;;;4958607;28;20067;-90
2022/08/03 02:34:13;;;;;;;13.57;4.60;;;17.40;99.90;;;;;;4957971;28;20058;-91
2022/08/03 02:36:41;;;;;;;12.65;4.75;;;17.50;99.90;;;;;;4975811;28;20074;-90
2022/08/03 02:39:10;;;;;;;11.85;4.50;;;17.40;99.90;;;;;;4975496;28;20053;-91
2022/08/03 02:41:42;;;;;;;12.57;4.30;;;17.30;99.90;;;;;;4957846;28;20093;-90
2022/08/03 02:44:10;;;;;;;12.98;4.82;;;17.30;99.90;;;;;;4975846;28;20046;-91
2022/08/03 02:46:44;;;;;;;13.10;4.88;;;17.30;99.90;;;;;;4958082;28;20043;-90
2022/08/03 02:49:12;;;;;;;;;;;17.20;99.90;;;;;;4975589;28;20051;-90
2022/08/03 02:51:38;;;;;;;11.05;4.50;;;17.20;99.90;;;;;;4975355;28;19918;-90
2022/08/03 02:54:05;;;;;;;10.98;4.30;;;17.20;99.90;;;;;;4974477;28;20058;-90
2022/08/03 02:56:32;;;;;;;12.25;4.32;;;17.10;99.90;;;;;;4957247;28;20406;-89
2022/08/03 02:58:59;;;;;;;14.38;4.60;;;17.50;99.90;;;;;;4974737;28;20717;-90
2022/08/03 03:01:27;;;;;;;12.48;4.22;;;17.60;99.90;;;;;;4963110;28;20487;-90
2022/08/03 03:03:54;;;;;;;10.35;4.97;;;17.10;99.90;;;;;;4957044;28;20042;-90
2022/08/03 03:06:21;;;;;;;10.95;4.43;;;17.20;99.90;;;;;;4957967;28;20134;-90
2022/08/03 03:08:47;;;;;;;13.98;4.65;;;17.10;99.90;;;;;;4957323;28;20045;-90
2022/08/03 03:11:16;;;;;;;16.52;4.55;;;17.60;99.90;;;;;;4956917;28;20062;-90
2022/08/03 03:13:43;;;;;;;14.57;4.60;;;17.10;99.90;;;;;;4958463;28;20077;-90
2022/08/03 03:16:10;;;;;;;12.18;4.32;;;17.10;99.90;;;;;;4995416;28;20051;-90
2022/08/03 03:18:37;;;;;;;11.70;4.90;;;17.10;99.90;;;;;;4966208;28;20122;-90
2022/08/03 03:21:03;;;;;;;12.40;4.97;;;17.40;99.90;;;;;;4975492;28;20050;-89
2022/08/03 03:23:30;;;;;;;10.43;4.70;;;17.10;99.90;;;;;;4957023;28;20521;-91
2022/08/03 03:25:57;;;;;;;13.30;4.20;;;17.20;99.90;;;;;;4961703;28;20027;-90
2022/08/03 03:28:24;;;;;;;13.95;4.72;;;17.10;99.90;;;;;;4977986;28;20136;-90
2022/08/03 03:30:50;;;;;;;10.60;4.22;;;17.60;99.90;;;;;;4956649;28;20181;-90
2022/08/03 03:33:16;;;;;;;10.43;4.07;;;17.10;99.90;;;;;;4957235;28;20503;-91
2022/08/03 03:35:43;;;;;;;13.10;4.22;;;17.70;99.90;;;;;;4957626;28;20380;-91
2022/08/03 03:38:09;;;;;;;15.10;4.30;;;17.30;99.90;;;;;;4956769;28;20514;-90
2022/08/03 03:40:35;;;;;;;12.38;4.53;;;17.30;99.90;;;;;;4957293;28;20061;-90
2022/08/03 03:43:02;;;;;;;16.17;4.25;;;17.50;99.90;;;;;;4974628;28;20057;-90
2022/08/03 03:45:29;;;;;;;11.73;3.88;;;17.40;99.90;;;;;;4956424;28;20134;-90
2022/08/03 03:47:55;;;;;;;11.68;4.07;;;17.40;99.90;;;;;;4956105;28;20494;-90
2022/08/03 03:50:21;;;;;;;9.98;3.60;;;17.70;99.90;;;;;;4957414;28;20047;-90
2022/08/03 03:52:47;;;;;;;13.30;4.25;;;17.90;99.90;;;;;;4973327;28;20050;-91
2022/08/03 03:55:31;;;;;;;12.20;4.00;;;17.50;99.90;;;;;;4972550;28;20406;-90
2022/08/03 03:58:19;;;;;;;10.65;3.70;;;17.50;99.90;;;;;;4956800;28;20035;-91
2022/08/03 04:00:45;;;;;;;15.00;3.75;;;17.50;99.90;;;;;;4979103;28;20084;-90
2022/08/03 04:03:29;;;;;;;15.40;4.03;;;17.70;99.90;;;;;;4975405;28;20042;-91
2022/08/03 04:11:47;;;;;;;11.38;4.05;;;17.40;99.90;;;;;;4976291;28;20046;-91
2022/08/03 04:14:39;;;;;;;14.73;4.18;;;18.00;99.90;;;;;;4975201;28;20097;-90
2022/08/03 04:17:25;;;;;;;9.35;4.05;;;17.40;99.90;;;;;;4992160;28;20042;-91
2022/08/03 04:19:53;;;;;;;12.02;3.80;;;17.90;99.90;;;;;;4980828;28;20050;-91
2022/08/03 04:22:42;;;;;;;15.18;5.10;;;18.30;99.90;;;;;;4976352;28;20073;-91
2022/08/03 04:25:15;;;;;;;10.98;3.88;;;17.80;99.90;;;;;;4976545;28;20039;-91
2022/08/03 04:28:03;;;;;;;13.98;4.28;;;18.10;99.90;;;;;;4975180;28;20051;-91
2022/08/03 04:30:32;;;;;;;11.90;3.95;;;17.30;99.90;;;;;;4993562;28;20042;-90
2022/08/03 04:33:18;;;;;;;11.93;4.18;;;17.80;99.90;;;;;;4975987;28;20101;-91
2022/08/03 04:35:46;;;;;;;10.20;3.63;;;18.20;99.90;;;;;;4975679;28;20125;-91
2022/08/03 04:38:37;;;;;;;12.18;4.03;;;17.70;99.90;;;;;;4976075;28;20058;-91
2022/08/03 04:41:04;;;;;;;11.40;4.05;;;17.50;99.90;;;;;;4975143;28;20061;-90
2022/08/03 04:43:47;;;;;;;10.63;3.80;;;18.40;99.90;;;;;;4993433;28;20042;-90
2022/08/03 04:46:35;;;;;;;10.82;4.00;;;17.60;99.90;;;;;;4975608;28;20054;-91
2022/08/03 04:49:02;;;;;;;13.02;4.35;;;17.70;99.90;;;;;;4995681;28;20085;-91
2022/08/03 04:51:28;;;;;;;12.30;4.28;;;18.30;99.90;;;;;;4981589;28;20402;-91
2022/08/03 04:54:06;;;;;;;13.65;4.45;;;18.50;99.90;;;;;;4977804;28;20050;-90
2022/08/03 04:56:51;;;;;;;15.48;5.10;;;18.70;99.90;;;;;;4975878;28;20506;-91
2022/08/03 04:59:17;;;;;;;12.25;4.38;;;18.50;99.90;;;;;;4984909;28;20069;-90
2022/08/03 05:02:02;;;;;;;15.07;5.25;;;18.20;99.90;;;;;;5020207;28;20046;-91
2022/08/03 05:04:27;;;;;;;15.32;4.63;;;18.10;99.90;;;;;;4985121;28;20066;-91
2022/08/03 05:06:53;;;;;;;15.35;4.70;;;18.10;99.90;;;;;;4982035;28;20046;-91
2022/08/03 05:09:31;;;;;;;15.15;4.75;;;18.20;99.90;;;;;;4996893;28;20046;-91
2022/08/03 05:11:56;;;;;;;14.40;4.80;;;18.90;99.90;;;;;;4998286;28;20101;-91
2022/08/03 05:14:40;;;;;;;14.85;4.95;;;18.30;99.90;;;;;;5004850;28;20047;-90
2022/08/03 05:17:07;;;;;;;15.52;5.05;;;19.30;99.90;;;;;;4978933;28;20073;-91
2022/08/03 05:19:33;;;;;;;11.27;4.97;;;18.60;99.90;;;;;;4979686;28;20494;-91
2022/08/03 05:22:16;;;;;;;11.13;4.50;;;19.10;99.90;;;;;;4980863;28;20043;-91
2022/08/03 05:24:41;;;;;;;11.10;4.45;;;19.60;99.90;;;;;;4988385;28;20046;-82
2022/08/03 05:27:07;;;;;;;15.52;4.55;;;18.80;99.90;;;;;;4976207;28;20410;-82
2022/08/03 05:29:53;;;;;;;15.20;4.82;;;19.20;99.90;;;;;;4959085;28;20042;-83
2022/08/03 05:32:19;;;;;;;14.02;4.63;;;19.60;99.90;;;;;;4976546;28;20499;-82
2022/08/03 05:35:02;;;;;;;14.63;4.70;;;19.00;99.90;;;;;;4959283;28;20050;-83
2022/08/03 05:37:28;;;;;;;11.88;4.03;;;19.50;99.90;;;;;;4963610;28;20261;-83
2022/08/03 05:39:54;;;;;;;13.93;4.28;;;19.60;99.90;;;;;;4977646;28;20513;-83
2022/08/03 05:42:26;;;;;;;12.68;4.50;;;19.40;99.90;;;;;;4976335;28;20077;-84
2022/08/03 05:44:52;;;;;;;19.27;5.00;;;20.10;99.90;;;;;;4975823;28;20050;-84
2022/08/03 05:47:18;;;;;;;14.70;4.10;;;19.90;99.90;;;;;;4985895;28;20306;-83
2022/08/03 05:49:43;;;;;;;12.10;4.43;;;19.80;99.90;;;;;;4961145;28;20129;-84
2022/08/03 05:52:27;;;;;;;12.23;4.60;;;19.50;99.90;;;;;;4946433;28;20102;-83
2022/08/03 05:54:53;;;;;;;14.43;4.38;;;19.50;99.90;;;;;;4975737;28;20494;-84
2022/08/03 05:57:45;;;;;;;14.00;4.18;;;19.60;99.90;;;;;;4976165;28;20050;-84
2022/08/03 06:00:19;;;;;;;15.95;4.32;;;19.70;99.90;;;;;;4975825;28;20138;-80
2022/08/03 06:02:45;;;;;;;13.20;4.85;;;20.10;99.90;;;;;;4958699;28;20055;-81
2022/08/03 06:05:11;;;;;;;14.73;4.78;;;20.40;99.90;;;;;;4958298;28;20051;-81
2022/08/03 06:07:36;;;;;;;12.20;4.57;;;19.90;99.90;;;;;;4976074;28;20078;-81
2022/08/03 06:10:03;;;;;;;13.68;4.80;;;20.10;99.90;;;;;;4975005;28;20591;-82
2022/08/03 06:12:29;;;;;;;15.38;5.03;;;20.00;99.90;;;;;;4975355;28;20082;-81
2022/08/03 06:14:55;;;;;;;13.93;4.38;;;20.50;99.90;;;;;;4958653;28;20042;-80
2022/08/03 06:17:20;;;;;;;13.35;4.80;;;20.20;99.90;;;;;;4958389;28;20090;-85
2022/08/03 06:19:46;;;;;;;13.45;5.00;;;20.20;99.90;;;;;;4956996;28;20039;-84
2022/08/03 06:22:11;;;;;;;16.33;4.80;;;20.40;99.90;;;;;;4958439;28;20204;-83
2022/08/03 06:24:37;;;;;;;12.38;4.85;;;20.40;99.90;;;;;;4979372;28;20053;-85
2022/08/03 06:27:03;;;;;;;14.48;5.03;;;20.40;99.90;;;;;;4991387;28;20045;-83
2022/08/03 06:29:29;;;;;;;11.95;4.60;;;20.50;99.90;;;;;;4976760;28;20053;-84
2022/08/03 06:31:55;;;;;;;15.52;5.40;;;20.50;99.90;;;;;;4994419;28;20042;-83
2022/08/03 06:34:20;;;;;;;14.30;4.43;;;20.70;99.90;;;;;;4991856;28;20133;-83
2022/08/03 06:36:47;;;;;;;13.73;4.47;;;20.90;99.90;;;;;;4976202;28;20034;-83
2022/08/03 06:39:13;;;;;;;15.68;4.38;;;20.70;99.90;;;;;;4977216;28;20038;-83
2022/08/03 06:41:38;;;;;;;11.93;4.50;;;20.70;99.90;;;;;;4976296;28;20506;-84
2022/08/03 06:44:04;;;;;;;14.43;5.47;;;20.80;99.90;;;;;;4976813;28;20398;-83
2022/08/03 06:46:30;;;;;;;12.40;5.38;;;20.90;99.90;;;;;;4994603;28;20054;-82
2022/08/03 06:48:55;;;;;;;14.50;4.47;;;21.00;99.90;;;;;;4984641;28;20035;-85
2022/08/03 06:51:22;;;;;;;16.00;4.50;;;21.10;99.90;;;;;;4967275;28;20050;-85
2022/08/03 06:53:48;;;;;;;14.85;4.38;;;21.30;99.90;;;;;;4993213;28;20060;-85
2022/08/03 06:56:13;;;;;;;13.93;4.22;;;21.40;99.90;;;;;;4993830;28;20098;-84
2022/08/03 06:58:39;;;;;;;13.13;3.88;;;21.70;99.90;;;;;;4977235;28;20462;-85
2022/08/03 07:01:05;;;;;;;16.13;4.00;;;22.00;99.90;;;;;;4976149;28;20406;-85
2022/08/03 07:03:30;;;;;;;14.05;3.90;;;21.70;99.90;;;;;;4994683;28;20097;-86
2022/08/03 07:05:56;;;;;;;14.32;3.97;;;21.70;99.90;;;;;;4976691;28;20073;-84
2022/08/03 07:08:23;;;;;;;16.58;4.03;;;21.80;99.90;;;;;;4977052;28;20556;-85
2022/08/03 07:10:48;;;;;;;19.63;4.55;;;21.80;99.90;;;;;;4976826;28;20093;-85
2022/08/03 07:13:14;;;;;;;14.98;4.18;;;22.00;99.90;;;;;;4976995;28;20443;-85
2022/08/03 07:15:40;;;;;;;13.35;4.13;;;21.90;99.90;;;;;;4975892;28;20088;-85
2022/08/03 07:18:05;;;;;;;13.73;4.20;;;22.10;99.90;;;;;;4978263;28;20498;-83
2022/08/03 07:20:32;;;;;;;16.15;4.05;;;22.80;99.90;;;;;;4977501;28;20089;-83
2022/08/03 07:22:58;;;;;;;11.77;4.00;;;22.30;99.90;;;;;;4974482;28;20096;-83
2022/08/03 07:25:24;;;;;;;14.40;4.00;;;22.40;99.90;;;;;;4994009;28;20459;-83
2022/08/03 07:27:49;;;;;;;13.82;4.00;;;22.70;99.90;;;;;;4993868;28;20046;-83
2022/08/03 07:30:16;;;;;;;12.57;3.88;;;22.60;99.90;;;;;;4975665;28;20050;-83
2022/08/03 07:32:42;;;;;;;15.60;3.88;;;22.70;99.90;;;;;;4976345;28;20042;-84
2022/08/03 07:35:09;;;;;;;14.88;4.38;;;22.70;99.90;;;;;;4993506;28;20551;-83
2022/08/03 07:37:35;;;;;;;14.32;3.78;;;22.60;99.90;;;;;;4975714;28;20050;-83
2022/08/03 07:40:02;;;;;;;13.00;3.90;;;22.60;99.90;;;;;;4976441;28;20042;-83
2022/08/03 07:42:29;;;;;;;15.20;3.70;;;22.70;99.90;;;;;;4976100;28;20483;-83
2022/08/03 07:44:58;;;;;;;15.65;4.03;;;22.50;99.90;;;;;;4975256;28;20053;-83
2022/08/03 07:47:27;;;;;;;14.27;4.15;;;22.60;99.90;;;;;;4976017;28;20133;-83
2022/08/03 07:49:53;;;;;;;14.90;3.70;;;23.00;99.90;;;;;;4976049;28;20129;-83
2022/08/03 07:55:05;;;;;;;12.82;3.40;;;22.80;99.90;;;;;;4975680;28;20054;-83
2022/08/03 07:57:31;;;;;;;13.70;3.53;;;23.00;99.90;;;;;;4975296;28;20043;-84
2022/08/03 07:59:57;;;;;;;15.73;4.22;;;23.10;99.90;;;;;;4975930;28;20053;-84
2022/08/03 08:02:25;;;;;;;16.88;3.70;;;23.10;99.90;;;;;;4980728;28;20490;-83
2022/08/03 08:04:51;;;;;;;15.57;3.80;;;23.20;99.90;;;;;;5001546;28;20042;-83
2022/08/03 08:07:16;;;;;;;15.93;4.00;;;23.10;99.90;;;;;;4976104;28;20050;-84
2022/08/03 08:09:42;;;;;;;15.60;3.72;;;23.30;99.90;;;;;;4975963;28;20039;-83
2022/08/03 08:12:09;;;;;;;17.48;3.97;;;23.50;99.90;;;;;;4975382;28;20470;-83
2022/08/03 08:14:34;;;;;;;12.52;3.92;;;23.30;99.90;;;;;;4976151;28;20129;-83
2022/08/03 08:17:01;;;;;;;14.20;3.65;;;23.80;99.90;;;;;;4975906;28;20478;-84
2022/08/03 08:19:26;;;;;;;15.27;3.70;;;23.60;99.90;;;;;;4992677;28;20050;-83
2022/08/03 08:21:52;;;;;;;14.95;4.43;;;23.80;99.90;;;;;;4975904;28;20089;-84
2022/08/03 08:24:18;;;;;;;15.77;3.83;;;23.80;99.90;;;;;;4975530;28;20134;-83
2022/08/03 08:26:43;;;;;;;13.18;3.45;;;23.80;99.90;;;;;;4992193;28;20046;-84
2022/08/03 08:29:09;;;;;;;17.17;4.25;;;24.00;99.90;;;;;;4975953;28;20046;-84
2022/08/03 08:31:34;;;;;;;17.17;3.80;;;23.70;99.90;;;;;;4993268;28;20045;-83
2022/08/03 08:34:04;;;;;;;11.95;3.72;;;24.00;99.90;;;;;;4994154;28;20474;-84
2022/08/03 08:36:33;;;;;;;14.63;3.42;;;24.00;99.90;;;;;;4979589;28;20054;-84
2022/08/03 08:38:59;;;;;;;15.50;3.92;;;24.10;99.90;;;;;;4996627;28;20050;-84
2022/08/03 08:41:25;;;;;;;15.77;3.53;;;24.30;99.90;;;;;;4978857;28;20454;-84
2022/08/03 08:43:52;;;;;;;16.75;3.70;;;24.40;99.90;;;;;;4996639;28;20073;-84
2022/08/03 08:46:24;;;;;;;15.52;3.45;;;24.40;99.90;;;;;;4997043;28;20042;-84
2022/08/03 08:48:51;;;;;;;16.85;3.60;;;24.50;99.90;;;;;;4996139;28;20046;-81
2022/08/03 08:51:19;;;;;;;14.60;3.83;;;24.50;99.90;;;;;;4997178;28;20046;-82
2022/08/03 08:53:50;;;;;;;15.85;4.65;;;24.60;99.90;;;;;;4978365;28;20054;-81
2022/08/03 08:56:17;;;;;;;15.43;3.92;;;24.60;99.90;;;;;;4997048;28;20108;-80
2022/08/03 08:58:53;;;;;;;16.90;3.53;;;24.60;99.90;;;;;;4996486;28;20470;-80
2022/08/03 09:01:19;;;;;;;18.17;4.32;;;24.70;99.90;;;;;;4996312;28;20043;-81
2022/08/03 09:03:45;;;;;;;18.33;4.55;;;24.90;99.90;;;;;;4979005;28;20050;-81
2022/08/03 09:06:11;;;;;;;16.00;3.63;;;25.00;99.90;;;;;;4978953;28;20096;-79
2022/08/03 09:08:37;;;;;;;18.00;3.88;;;25.20;99.90;;;;;;4995880;28;20046;-81
2022/08/03 09:11:03;;;;;;;15.73;4.25;;;25.20;99.90;;;;;;4996598;28;20093;-81
2022/08/03 09:13:29;;;;;;;15.20;4.03;;;25.30;99.90;;;;;;4978824;28;20105;-81
2022/08/03 09:16:12;;;;;;;14.23;3.58;;;25.30;99.90;;;;;;4977988;28;20050;-81
2022/08/03 09:18:39;;;;;;;13.85;3.85;;;25.30;99.90;;;;;;4978943;28;20050;-82
2022/08/03 09:21:25;;;;;;;19.33;3.38;;;25.30;99.90;;;;;;4995926;28;20505;-81
2022/08/03 09:23:53;;;;;;;14.30;3.97;;;25.30;99.90;;;;;;4977752;28;20128;-82
2022/08/03 09:26:20;;;;;;;17.55;3.67;;;25.50;99.90;;;;;;4972444;28;20137;-81
2022/08/03 09:28:46;;;;;;;13.45;3.38;;;25.60;99.90;;;;;;4972296;28;20046;-81
2022/08/03 09:31:11;;;;;;;13.73;3.22;;;25.80;99.90;;;;;;4978720;28;20104;-81
2022/08/03 09:33:47;;;;;;;13.15;3.90;;;25.90;99.90;;;;;;4978384;28;20092;-82
2022/08/03 09:36:36;;;;;;;16.88;3.72;;;26.00;99.90;;;;;;4977846;28;20043;-81
2022/08/03 09:39:23;;;;;;;14.75;3.45;;;25.90;99.90;;;;;;4978268;28;20445;-81
2022/08/03 09:42:09;;;;;;;16.63;3.60;;;26.00;99.90;;;;;;4995841;28;20062;-81
2022/08/03 09:44:41;;;;;;;14.63;3.20;;;26.10;99.90;;;;;;4977612;28;20073;-81
2022/08/03 09:47:09;;;;;;;15.02;3.47;;;26.10;99.90;;;;;;4977607;28;20046;-81
2022/08/03 09:49:35;;;;;;;14.02;2.88;;;26.20;99.90;;;;;;4978439;28;20046;-82
2022/08/03 09:52:21;;;;;;;12.75;3.20;;;26.30;99.90;;;;;;4994880;28;20104;-82
2022/08/03 09:54:55;;;;;;;15.45;3.63;;;26.40;99.90;;;;;;4977679;28;20054;-82
2022/08/03 09:57:25;;;;;;;17.52;3.85;;;26.60;99.90;;;;;;4977356;28;20185;-82
2022/08/03 10:00:03;;;;;;;11.50;2.70;;;26.70;99.90;;;;;;4978324;28;20054;-83
2022/08/03 10:02:29;;;;;;;14.15;3.35;;;26.70;99.90;;;;;;4978364;28;20058;-82
2022/08/03 10:04:55;;;;;;;15.27;3.40;;;26.90;99.90;;;;;;4977302;28;20062;-82
2022/08/03 10:07:23;;;;;;;15.77;3.00;;;27.10;99.90;;;;;;4992368;28;20050;-83
2022/08/03 10:09:57;;;;;;;14.90;3.08;;;27.20;99.90;;;;;;4984283;28;20398;-83
2022/08/03 10:12:23;;;;;;;13.95;3.20;;;27.30;99.90;;;;;;4983821;28;20491;-83
2022/08/03 10:14:49;;;;;;;17.50;3.28;;;27.40;99.90;;;;;;4968340;28;20064;-82
2022/08/03 10:17:15;;;;;;;10.02;3.17;;;27.30;99.90;;;;;;4960037;28;20050;-82
2022/08/03 10:19:40;;;;;;;13.65;3.13;;;27.30;99.90;;;;;;4959795;28;20078;-82
2022/08/03 10:22:11;;;;;;;14.13;2.78;;;27.20;99.90;;;;;;4976488;28;20132;-82
2022/08/03 10:24:43;;;;;;;14.85;3.17;;;27.30;99.90;;;;;;4976546;28;20101;-82
2022/08/03 10:27:10;;;;;;;14.05;3.10;;;27.40;99.90;;;;;;4975323;28;20395;-83
2022/08/03 10:29:47;;;;;;;14.38;3.45;;;27.40;99.90;;;;;;4959633;28;20133;-81
2022/08/03 10:32:19;;;;;;;14.02;3.08;;;27.60;99.90;;;;;;4975807;28;20513;-81
2022/08/03 10:34:49;;;;;;;13.23;3.25;;;27.70;99.90;;;;;;4958644;28;20125;-82
2022/08/03 10:37:17;;;;;;;17.17;3.72;;;27.70;99.90;;;;;;4975797;28;20047;-82
2022/08/03 10:39:53;;;;;;;14.60;3.25;;;27.90;99.90;;;;;;4975474;28;20498;-81
2022/08/03 10:42:21;;;;;;;13.60;3.08;;;28.00;99.90;;;;;;4957997;28;20055;-81
2022/08/03 10:44:51;;;;;;;12.85;2.90;;;28.00;99.90;;;;;;4975361;28;20390;-81
2022/08/03 10:47:17;;;;;;;17.92;3.72;;;28.00;99.90;;;;;;4974963;28;20051;-81
2022/08/03 10:49:45;;;;;;;16.48;3.20;;;28.00;99.90;;;;;;4957976;28;20092;-82
2022/08/03 10:52:11;;;;;;;16.67;3.60;;;28.30;99.90;;;;;;4966496;28;20042;-82
2022/08/03 10:57:41;;;;;;;16.08;3.40;;;28.40;99.90;;;;;;4984935;28;20051;-82
2022/08/03 11:00:08;;;;;;;13.52;2.90;;;28.40;99.30;;;;;;4967896;28;20078;-82
2022/08/03 11:03:05;;;;;;;15.80;3.13;;;28.60;99.90;;;;;;4966225;28;20045;-81
2022/08/03 11:05:35;;;;;;;14.88;3.30;;;28.60;99.30;;;;;;4984634;28;20035;-81
2022/08/03 11:08:17;;;;;;;13.30;3.33;;;28.70;99.90;;;;;;4957984;28;20063;-81
2022/08/03 11:10:43;;;;;;;14.82;3.17;;;28.80;99.50;;;;;;4957357;28;20053;-81
2022/08/03 11:13:13;;;;;;;12.23;2.95;;;29.20;99.50;;;;;;4974697;28;20042;-82
2022/08/03 11:15:40;;;;;;;17.00;3.28;;;29.50;99.30;;;;;;4976466;28;20074;-82
2022/08/03 11:18:10;;;;;;;13.80;3.03;;;29.50;98.30;;;;;;4976889;28;20046;-81
2022/08/03 11:21:02;;;;;;;15.13;3.35;;;29.70;97.30;;;;;;4977182;28;20042;-82
2022/08/03 11:23:46;;;;;;;17.40;3.47;;;29.50;95.90;;;;;;4969131;28;20055;-82
2022/08/03 11:26:17;;;;;;;15.70;3.20;;;29.50;95.80;;;;;;4974426;28;20066;-82
2022/08/03 11:28:46;;;;;;;15.05;2.90;;;29.70;96.70;;;;;;4973655;28;20046;-82
2022/08/03 11:31:21;;;;;;;16.70;3.40;;;29.80;95.90;;;;;;4974587;28;20043;-83
2022/08/03 11:34:07;;;;;;;17.98;3.70;;;29.80;95.50;;;;;;4974394;28;20047;-82
2022/08/03 11:37:10;;;;;;;16.70;3.95;;;30.00;95.70;;;;;;4956465;28;20058;-83
2022/08/03 11:39:44;;;;;;;14.88;3.28;;;30.20;96.30;;;;;;4974731;28;20126;-84
2022/08/03 11:42:26;;;;;;;13.77;3.33;;;30.40;96.30;;;;;;4975264;28;20434;-83
2022/08/03 11:44:59;;;;;;;14.75;3.58;;;30.20;94.70;;;;;;4962674;28;20055;-82
2022/08/03 11:47:27;;;;;;;18.67;2.95;;;30.50;94.80;;;;;;4967630;28;20038;-83
2022/08/03 11:49:57;;;;;;;16.17;2.97;;;30.50;95.70;;;;;;4963994;28;20126;-83
2022/08/03 11:52:24;;;;;;;12.75;2.65;;;30.60;94.50;;;;;;4966951;28;20050;-83
2022/08/03 11:54:53;;;;;;;13.85;3.08;;;30.70;95.40;;;;;;4983192;28;20319;-83
2022/08/03 11:57:33;;;;;;;16.95;3.38;;;30.60;94.80;;;;;;4966441;28;20069;-83
2022/08/03 11:59:58;;;;;;;15.20;2.70;;;30.70;94.30;;;;;;4962811;28;20059;-82
2022/08/03 12:02:24;;;;;;;13.20;2.78;;;30.50;93.80;;;;;;4965684;28;20046;-83
2022/08/03 12:04:50;;;;;;;15.57;3.00;;;30.50;94.30;;;;;;4965469;28;20035;-83
2022/08/03 12:07:16;;;;;;;17.50;2.92;;;30.80;94.50;;;;;;4982302;28;20046;-82
2022/08/03 12:09:43;;;;;;;13.20;2.83;;;30.70;94.70;;;;;;4965690;28;20038;-83
2022/08/03 12:12:09;;;;;;;14.43;3.30;;;30.80;94.00;;;;;;4982832;28;20065;-83
2022/08/03 12:14:34;;;;;;;17.52;3.15;;;30.70;94.40;;;;;;4966005;28;20039;-83
2022/08/03 12:17:00;;;;;;;15.25;3.15;;;30.70;94.40;;;;;;4983815;28;20050;-83
2022/08/03 12:19:26;;;;;;;14.60;2.95;;;30.90;94.10;;;;;;4982541;28;20090;-83
2022/08/03 12:21:51;;;;;;;12.85;2.95;;;31.10;93.80;;;;;;4964860;28;20050;-83
2022/08/03 12:24:17;;;;;;;17.33;3.47;;;31.20;93.80;;;;;;4983143;28;20055;-83
2022/08/03 12:26:48;;;;;;;13.30;2.90;;;31.30;92.60;;;;;;4986969;28;20042;-83
2022/08/03 12:29:18;;;;;;;13.73;3.15;;;31.30;92.00;;;;;;4960260;28;20042;-83
2022/08/03 12:31:44;;;;;;;13.05;2.85;;;31.60;92.40;;;;;;4974249;28;20054;-87
2022/08/03 12:34:10;;;;;;;13.80;3.45;;;31.40;92.60;;;;;;4991316;28;20050;-84
2022/08/03 12:36:37;;;;;;;13.40;2.95;;;31.20;92.80;;;;;;4966247;28;20545;-84
2022/08/03 12:39:08;;;;;;;14.65;3.35;;;30.90;91.50;;;;;;4965912;28;20059;-84
2022/08/03 12:41:38;;;;;;;17.33;3.00;;;31.00;92.00;;;;;;4965742;28;20085;-84
2022/08/03 12:44:08;;;;;;;12.63;3.28;;;31.10;92.20;;;;;;4966297;28;20536;-84
2022/08/03 12:46:39;;;;;;;15.95;3.33;;;31.20;92.30;;;;;;4965251;28;20090;-84
2022/08/03 12:49:18;;;;;;;15.63;3.35;;;31.60;92.20;;;;;;4973184;28;20050;-85
2022/08/03 12:51:43;;;;;;;11.88;3.00;;;31.60;91.50;;;;;;4955800;28;20046;-85
2022/08/03 12:54:16;;;;;;;12.00;2.80;;;31.80;91.70;;;;;;4972589;28;20054;-84
2022/08/03 12:56:57;;;;;;;15.27;3.17;;;31.70;90.40;;;;;;4973753;28;20055;-85
2022/08/03 12:59:26;;;;;;;15.13;3.15;;;31.80;90.50;;;;;;4956547;28;20073;-85
2022/08/03 13:01:51;;;;;;;13.20;3.30;;;31.80;90.80;;;;;;4956446;28;20074;-85
2022/08/03 13:04:36;;;;;;;16.02;2.85;;;31.80;91.10;;;;;;4973561;28;20129;-85